Time;durP1;ratioP1;P1;durP2;ratioP2;P2;SDS_P1;SDS_P2;PMS_P1;PMS_P2;Temp;Humidity;BMP_temperature;BMP_pressure;BME280_temperature;BME280_humidity;BME280_pressure;Samples;Min_cycle;Max_cycle;Signal;HPM_P1;HPM_P2
2024/04/13 00:01:50;;;;;;;8.85;4.28;;;13.10;99.90;;;;;;5499495;26;19998;-71
2024/04/13 00:04:16;;;;;;;9.40;4.30;;;13.10;99.90;;;;;;5497782;26;19998;-71
2024/04/13 00:06:41;;;;;;;9.85;4.45;;;13.10;99.90;;;;;;5497586;26;20395;-71
2024/04/13 00:09:07;;;;;;;13.80;4.55;;;13.10;99.90;;;;;;5498616;26;20012;-71
2024/04/13 00:11:33;;;;;;;12.75;4.05;;;13.20;99.90;;;;;;5499071;26;20005;-72
2024/04/13 00:13:58;;;;;;;14.50;4.40;;;13.10;99.90;;;;;;5498179;26;20028;-71
2024/04/13 00:16:27;;;;;;;10.00;4.10;;;13.00;99.90;;;;;;5497010;26;20110;-71
2024/04/13 00:18:53;;;;;;;10.35;4.00;;;13.10;99.90;;;;;;5498210;26;20014;-72
2024/04/13 00:21:19;;;;;;;13.73;4.47;;;13.00;99.90;;;;;;5498803;26;19998;-72
2024/04/13 00:23:47;;;;;;;10.18;4.32;;;13.00;99.90;;;;;;5497999;26;20727;-71
2024/04/13 00:26:12;;;;;;;12.02;4.78;;;13.00;99.90;;;;;;5498131;26;20009;-72
2024/04/13 00:28:38;;;;;;;9.20;4.43;;;13.00;99.90;;;;;;5498857;26;20005;-71
2024/04/13 00:31:04;;;;;;;13.38;4.07;;;13.00;99.90;;;;;;5497859;26;20014;-71
2024/04/13 00:33:30;;;;;;;10.93;4.50;;;13.00;99.90;;;;;;5499213;26;20002;-72
2024/04/13 00:35:58;;;;;;;8.38;4.35;;;13.00;99.90;;;;;;5498508;26;20002;-71
2024/04/13 00:38:24;;;;;;;9.88;4.55;;;13.00;99.90;;;;;;5496462;26;20463;-71
2024/04/13 00:40:50;;;;;;;10.05;4.53;;;13.10;99.90;;;;;;5499330;26;20001;-70
2024/04/13 00:43:15;;;;;;;9.45;4.38;;;13.00;99.90;;;;;;5496990;26;20022;-70
2024/04/13 00:45:45;;;;;;;8.43;4.15;;;13.00;99.90;;;;;;5498296;26;20010;-70
2024/04/13 00:48:23;;;;;;;8.75;4.22;;;13.00;99.90;;;;;;5496825;26;20047;-70
2024/04/13 00:50:58;;;;;;;11.07;4.05;;;13.00;99.90;;;;;;5498165;26;19998;-72
2024/04/13 00:53:25;;;;;;;10.73;4.35;;;13.00;99.90;;;;;;5497335;26;20014;-71
2024/04/13 00:55:54;;;;;;;9.38;4.18;;;12.90;99.90;;;;;;5498225;26;20030;-70
2024/04/13 00:58:26;;;;;;;11.23;4.40;;;13.00;99.90;;;;;;5497346;26;20441;-70
2024/04/13 01:00:53;;;;;;;11.80;4.45;;;13.00;99.90;;;;;;5496927;26;20002;-70
2024/04/13 01:03:21;;;;;;;12.23;4.20;;;13.00;99.90;;;;;;5497065;26;20002;-71
2024/04/13 01:05:48;;;;;;;9.82;4.15;;;13.00;99.90;;;;;;5497888;26;20008;-71
2024/04/13 01:08:15;;;;;;;10.43;4.85;;;13.00;99.90;;;;;;5497306;26;20340;-70
2024/04/13 01:10:42;;;;;;;11.88;4.15;;;12.90;99.90;;;;;;5498118;26;20002;-70
2024/04/13 01:13:11;;;;;;;12.02;4.20;;;13.00;99.90;;;;;;5496531;26;20039;-70
2024/04/13 01:15:38;;;;;;;9.25;4.20;;;12.90;99.90;;;;;;5497692;26;20009;-71
2024/04/13 01:18:10;;;;;;;8.35;4.07;;;12.90;99.90;;;;;;5497431;26;20002;-70
2024/04/13 01:20:40;;;;;;;12.98;4.30;;;13.00;99.90;;;;;;5496264;26;20002;-72
2024/04/13 01:23:11;;;;;;;8.10;4.30;;;12.90;99.90;;;;;;5496082;26;20002;-71
2024/04/13 01:25:40;;;;;;;11.75;4.30;;;13.00;99.90;;;;;;5497691;26;20010;-70
2024/04/13 01:28:10;;;;;;;9.43;4.35;;;12.90;99.90;;;;;;5497631;26;20059;-71
2024/04/13 01:30:36;;;;;;;13.07;3.95;;;13.00;99.90;;;;;;5497952;26;20001;-71
2024/04/13 01:33:02;;;;;;;10.93;4.30;;;12.90;99.90;;;;;;5496580;26;20014;-71
2024/04/13 01:35:30;;;;;;;8.75;3.85;;;12.90;99.90;;;;;;5495926;26;20010;-70
2024/04/13 01:37:55;;;;;;;8.55;3.90;;;12.90;99.90;;;;;;5497585;26;20018;-70
2024/04/13 01:40:22;;;;;;;8.68;3.90;;;12.90;99.90;;;;;;5497700;26;20006;-70
2024/04/13 01:42:48;;;;;;;8.52;3.90;;;12.90;99.90;;;;;;5496092;26;19998;-70
2024/04/13 01:45:13;;;;;;;7.85;3.47;;;12.90;99.90;;;;;;5498297;26;20013;-71
2024/04/13 01:47:40;;;;;;;10.18;4.25;;;12.90;99.90;;;;;;5497117;26;19999;-71
2024/04/13 01:50:07;;;;;;;12.98;4.45;;;13.00;99.90;;;;;;5497532;26;20342;-70
2024/04/13 01:52:33;;;;;;;8.13;4.10;;;12.90;99.90;;;;;;5496986;26;20006;-70
2024/04/13 01:55:00;;;;;;;8.90;3.75;;;12.90;99.90;;;;;;5497363;26;20051;-71
2024/04/13 01:57:26;;;;;;;12.57;4.35;;;12.90;99.90;;;;;;5497589;26;19995;-71
2024/04/13 01:59:52;;;;;;;6.30;3.47;;;12.80;99.90;;;;;;5498602;26;20025;-70
2024/04/13 02:02:19;;;;;;;7.57;3.33;;;12.90;99.90;;;;;;5494669;26;19998;-71
2024/04/13 02:04:44;;;;;;;7.40;3.88;;;12.90;99.90;;;;;;5494987;26;20018;-72
2024/04/13 02:07:10;;;;;;;8.18;3.90;;;12.80;99.90;;;;;;5497513;26;19998;-71
2024/04/13 02:09:37;;;;;;;8.10;4.28;;;12.80;99.90;;;;;;5496761;26;20001;-71
2024/04/13 02:12:03;;;;;;;7.50;3.70;;;12.80;99.90;;;;;;5496598;26;19994;-71
2024/04/13 02:14:29;;;;;;;7.35;3.50;;;12.80;99.90;;;;;;5498003;26;19998;-70
2024/04/13 02:16:54;;;;;;;7.50;3.72;;;12.90;99.90;;;;;;5496331;26;20045;-71
2024/04/13 02:19:20;;;;;;;10.90;4.05;;;12.80;99.90;;;;;;5496885;26;20002;-70
2024/04/13 02:21:47;;;;;;;10.25;4.00;;;12.80;99.90;;;;;;5497646;26;20002;-70
2024/04/13 02:24:13;;;;;;;8.63;3.80;;;12.90;99.90;;;;;;5492916;26;20002;-71
2024/04/13 02:26:38;;;;;;;8.50;3.67;;;12.90;99.90;;;;;;5496136;26;20077;-70
2024/04/13 02:29:04;;;;;;;5.88;3.80;;;12.90;99.90;;;;;;5497787;26;20002;-70
2024/04/13 02:31:30;;;;;;;7.82;4.05;;;12.90;99.90;;;;;;5496728;26;20006;-71
2024/04/13 02:33:55;;;;;;;8.85;3.90;;;12.90;99.90;;;;;;5496846;26;20447;-73
2024/04/13 02:36:21;;;;;;;6.80;3.60;;;12.90;99.90;;;;;;5497636;26;20005;-71
2024/04/13 02:38:46;;;;;;;7.93;3.80;;;12.90;99.90;;;;;;5495461;26;19998;-71
2024/04/13 02:41:13;;;;;;;8.32;3.75;;;12.90;99.90;;;;;;5493833;26;20346;-70
2024/04/13 02:43:39;;;;;;;11.25;4.32;;;12.90;99.90;;;;;;5497196;26;20039;-70
2024/04/13 02:46:09;;;;;;;8.20;3.78;;;12.90;99.90;;;;;;5495021;26;20005;-70
2024/04/13 02:48:36;;;;;;;8.25;4.07;;;12.90;99.90;;;;;;5495503;26;19998;-70
2024/04/13 02:51:02;;;;;;;13.32;4.60;;;12.90;99.90;;;;;;5496716;26;20036;-72
2024/04/13 02:53:28;;;;;;;8.20;3.63;;;12.90;99.90;;;;;;5496981;26;21240;-71
2024/04/13 02:55:53;;;;;;;5.82;3.35;;;12.90;99.90;;;;;;5496502;26;19998;-72
2024/04/13 02:58:19;;;;;;;8.27;3.70;;;12.90;99.90;;;;;;5496427;26;19998;-71
2024/04/13 03:00:55;;;;;;;8.10;3.78;;;12.90;99.90;;;;;;5496570;26;20006;-70
2024/04/13 03:03:20;;;;;;;7.55;3.63;;;12.90;99.90;;;;;;5496410;26;20010;-71
2024/04/13 03:05:56;;;;;;;7.55;4.20;;;12.90;99.90;;;;;;5495093;26;20081;-70
2024/04/13 03:08:21;;;;;;;8.43;3.80;;;12.90;99.90;;;;;;5495871;26;20074;-71
2024/04/13 03:10:57;;;;;;;7.53;3.60;;;12.90;99.90;;;;;;5497039;26;20002;-70
2024/04/13 03:13:23;;;;;;;6.85;3.97;;;12.90;99.90;;;;;;5494358;26;20014;-71
2024/04/13 03:16:16;;;;;;;6.22;3.38;;;12.90;99.90;;;;;;5493054;26;20006;-70
2024/04/13 03:18:43;;;;;;;7.65;4.18;;;12.90;99.90;;;;;;5492880;26;19998;-70
2024/04/13 03:21:10;;;;;;;8.70;4.15;;;12.90;99.90;;;;;;5494614;26;19994;-71
2024/04/13 03:23:37;;;;;;;8.13;3.47;;;12.80;99.90;;;;;;5496252;26;20001;-71
2024/04/13 03:26:06;;;;;;;8.60;4.05;;;12.80;99.90;;;;;;5493834;26;19999;-71
2024/04/13 03:28:33;;;;;;;8.35;4.22;;;12.90;99.90;;;;;;5490902;26;20010;-71
2024/04/13 03:31:01;;;;;;;12.18;3.97;;;12.80;99.90;;;;;;5495932;26;20012;-70
2024/04/13 03:33:26;;;;;;;10.40;4.00;;;12.80;99.90;;;;;;5496600;26;20002;-69
2024/04/13 03:35:52;;;;;;;9.43;4.30;;;12.80;99.90;;;;;;5494902;26;19990;-72
2024/04/13 03:38:18;;;;;;;6.40;3.90;;;12.80;99.90;;;;;;5496721;26;20002;-72
2024/04/13 03:40:44;;;;;;;10.65;4.78;;;12.80;99.90;;;;;;5499202;26;19994;-73
2024/04/13 03:43:10;;;;;;;12.27;4.20;;;12.80;99.90;;;;;;5497872;26;19998;-73
2024/04/13 03:45:36;;;;;;;8.32;3.50;;;12.80;99.90;;;;;;5499935;26;19994;-74
2024/04/13 03:48:01;;;;;;;6.55;3.97;;;12.80;99.90;;;;;;5499999;26;20013;-73
2024/04/13 03:50:27;;;;;;;12.18;4.45;;;12.80;99.90;;;;;;5497693;26;20001;-73
2024/04/13 03:52:53;;;;;;;9.38;4.50;;;12.80;99.90;;;;;;5499119;26;20006;-73
2024/04/13 03:55:18;;;;;;;9.40;4.78;;;12.70;99.90;;;;;;5499621;26;19990;-74
2024/04/13 03:57:44;;;;;;;9.55;4.68;;;12.80;99.90;;;;;;5498531;26;20439;-74
2024/04/13 04:00:10;;;;;;;8.75;4.80;;;12.70;99.90;;;;;;5499310;26;19998;-73
2024/04/13 04:02:36;;;;;;;8.20;4.80;;;12.70;99.90;;;;;;5498406;26;20002;-73
2024/04/13 04:05:03;;;;;;;9.43;4.88;;;12.70;99.90;;;;;;5498092;26;20040;-73
2024/04/13 04:07:29;;;;;;;11.63;4.65;;;12.70;99.90;;;;;;5498749;26;20047;-74
2024/04/13 04:09:54;;;;;;;8.70;4.72;;;12.60;99.90;;;;;;5498543;26;20006;-73
2024/04/13 04:12:20;;;;;;;7.95;4.30;;;12.60;99.90;;;;;;5496511;26;20013;-70
2024/04/13 04:14:45;;;;;;;7.82;4.47;;;12.60;99.90;;;;;;5498449;26;20014;-71
2024/04/13 04:17:11;;;;;;;8.82;4.78;;;12.60;99.90;;;;;;5496747;26;20002;-73
2024/04/13 04:19:37;;;;;;;8.50;4.28;;;12.60;99.90;;;;;;5499557;26;20474;-71
2024/04/13 04:22:03;;;;;;;11.07;4.72;;;12.60;99.90;;;;;;5498296;26;20006;-73
2024/04/13 04:24:28;;;;;;;9.85;4.45;;;12.60;99.90;;;;;;5494556;26;19994;-71
2024/04/13 04:26:54;;;;;;;9.43;4.40;;;12.60;99.90;;;;;;5495603;26;20010;-72
2024/04/13 04:29:19;;;;;;;13.27;4.85;;;12.60;99.90;;;;;;5495409;26;20005;-71
2024/04/13 04:31:45;;;;;;;10.05;4.55;;;12.50;99.90;;;;;;5496933;26;19998;-73
2024/04/13 04:34:11;;;;;;;7.35;4.03;;;12.70;99.90;;;;;;5498115;26;20005;-71
2024/04/13 04:36:39;;;;;;;12.52;4.78;;;12.50;99.90;;;;;;5498182;26;20074;-72
2024/04/13 04:39:05;;;;;;;7.70;4.18;;;12.50;99.90;;;;;;5498067;26;20008;-72
2024/04/13 04:41:31;;;;;;;10.57;4.70;;;12.50;99.90;;;;;;5497787;26;20009;-71
2024/04/13 04:43:56;;;;;;;11.00;4.75;;;12.50;99.90;;;;;;5499287;26;20002;-72
2024/04/13 04:46:22;;;;;;;10.32;4.13;;;12.50;99.90;;;;;;5497292;26;20006;-71
2024/04/13 04:48:49;;;;;;;13.35;4.82;;;12.50;99.90;;;;;;5496397;26;20009;-71
2024/04/13 04:51:15;;;;;;;11.82;4.88;;;12.50;99.90;;;;;;5498451;26;20002;-72
2024/04/13 04:53:40;;;;;;;8.35;4.50;;;12.50;99.90;;;;;;5498067;26;20005;-72
2024/04/13 04:56:06;;;;;;;8.98;4.50;;;12.50;99.90;;;;;;5495849;26;20461;-72
2024/04/13 04:58:32;;;;;;;8.65;4.35;;;12.50;99.90;;;;;;5495477;26;20017;-72
2024/04/13 05:00:58;;;;;;;6.95;4.07;;;12.50;99.90;;;;;;5497986;26;20006;-72
2024/04/13 05:03:24;;;;;;;8.45;4.13;;;12.50;99.90;;;;;;5496120;26;20512;-72
2024/04/13 05:05:50;;;;;;;11.18;5.05;;;12.60;99.90;;;;;;5498827;26;20020;-71
2024/04/13 05:08:16;;;;;;;10.95;4.65;;;12.60;99.90;;;;;;5495797;26;20005;-71
2024/04/13 05:10:42;;;;;;;10.02;3.97;;;12.60;99.90;;;;;;5498450;26;20014;-72
2024/04/13 05:13:09;;;;;;;10.27;4.47;;;12.70;99.90;;;;;;5494867;26;20009;-72
2024/04/13 05:15:35;;;;;;;10.15;4.60;;;12.70;99.90;;;;;;5495831;26;19998;-72
2024/04/13 05:18:03;;;;;;;8.82;4.15;;;12.80;99.90;;;;;;5498768;26;20002;-72
2024/04/13 05:20:29;;;;;;;10.35;4.32;;;12.80;99.90;;;;;;5495005;26;20006;-72
2024/04/13 05:22:54;;;;;;;7.18;4.20;;;12.80;99.90;;;;;;5498025;26;20639;-71
2024/04/13 05:25:20;;;;;;;8.60;4.60;;;12.80;99.90;;;;;;5496689;26;20002;-71
2024/04/13 05:27:46;;;;;;;11.57;5.00;;;12.90;99.90;;;;;;5491823;26;20099;-72
2024/04/13 05:30:12;;;;;;;11.90;4.68;;;12.90;99.90;;;;;;5493438;26;20010;-72
2024/04/13 05:32:38;;;;;;;7.65;4.28;;;13.00;99.90;;;;;;5496646;26;20012;-73
2024/04/13 05:35:05;;;;;;;10.20;4.50;;;13.00;99.90;;;;;;5493172;26;20016;-74
2024/04/13 05:37:31;;;;;;;10.93;4.55;;;13.10;99.90;;;;;;5496239;26;20013;-70
2024/04/13 05:39:57;;;;;;;10.90;4.72;;;13.10;99.90;;;;;;5497056;26;20034;-72
2024/04/13 05:42:22;;;;;;;13.05;4.75;;;13.20;99.90;;;;;;5496547;26;20616;-72
2024/04/13 05:44:48;;;;;;;9.52;3.97;;;13.20;99.90;;;;;;5496429;26;19998;-72
2024/04/13 05:47:13;;;;;;;9.90;4.45;;;13.20;99.90;;;;;;5495756;26;20445;-72
2024/04/13 05:49:39;;;;;;;9.52;4.28;;;13.20;99.90;;;;;;5497206;26;19998;-72
2024/04/13 05:52:05;;;;;;;9.73;4.20;;;13.30;99.90;;;;;;5497868;26;20016;-71
2024/04/13 05:54:31;;;;;;;7.72;4.40;;;13.30;99.90;;;;;;5493912;26;20002;-71
2024/04/13 05:56:57;;;;;;;8.77;4.15;;;13.30;99.90;;;;;;5495941;26;19998;-71
2024/04/13 05:59:23;;;;;;;9.40;4.25;;;13.40;99.90;;;;;;5495423;26;20008;-71
2024/04/13 06:01:48;;;;;;;7.82;4.13;;;13.40;99.90;;;;;;5495247;26;19994;-71
2024/04/13 06:04:14;;;;;;;7.47;4.30;;;13.50;99.90;;;;;;5493653;26;20002;-72
2024/04/13 06:06:41;;;;;;;9.73;4.63;;;13.40;99.90;;;;;;5496077;26;20056;-72
2024/04/13 06:09:07;;;;;;;8.95;4.40;;;13.50;99.90;;;;;;5490519;26;20001;-72
2024/04/13 06:11:33;;;;;;;9.02;3.75;;;13.50;99.90;;;;;;5496934;26;19990;-71
2024/04/13 06:13:59;;;;;;;8.52;4.25;;;13.50;99.90;;;;;;5495882;26;20009;-73
2024/04/13 06:16:25;;;;;;;7.57;3.55;;;13.60;99.90;;;;;;5494505;26;20051;-70
2024/04/13 06:18:52;;;;;;;7.30;4.70;;;13.60;99.90;;;;;;5496920;26;20434;-72
2024/04/13 06:21:17;;;;;;;7.05;4.03;;;13.60;99.90;;;;;;5495658;26;20014;-71
2024/04/13 06:23:43;;;;;;;13.23;4.25;;;13.60;99.90;;;;;;5491657;26;20043;-71
2024/04/13 06:26:09;;;;;;;7.72;3.90;;;13.70;99.90;;;;;;5496318;26;19998;-72
2024/04/13 06:28:35;;;;;;;10.60;4.22;;;13.70;99.90;;;;;;5495013;26;20002;-71
2024/04/13 06:31:01;;;;;;;10.50;4.25;;;13.80;99.90;;;;;;5497638;26;20012;-72
2024/04/13 06:33:28;;;;;;;7.45;3.78;;;13.80;99.90;;;;;;5496329;26;20001;-71
2024/04/13 06:35:54;;;;;;;10.88;4.15;;;13.80;99.90;;;;;;5495588;26;20051;-71
2024/04/13 06:38:26;;;;;;;7.38;3.72;;;13.90;99.90;;;;;;5496657;26;20035;-73
2024/04/13 06:40:54;;;;;;;8.95;4.55;;;14.00;99.90;;;;;;5494380;26;20006;-71
2024/04/13 06:43:20;;;;;;;7.20;3.70;;;14.10;99.90;;;;;;5491531;26;20013;-72
2024/04/13 06:45:48;;;;;;;10.77;3.97;;;14.10;99.90;;;;;;5497385;26;19994;-71
2024/04/13 06:48:14;;;;;;;10.27;4.50;;;14.10;99.90;;;;;;5493684;26;20006;-71
2024/04/13 06:50:43;;;;;;;9.93;3.78;;;14.00;99.90;;;;;;5494594;26;20043;-71
2024/04/13 06:53:08;;;;;;;8.93;3.70;;;14.20;99.90;;;;;;5494820;26;20034;-71
2024/04/13 06:55:34;;;;;;;11.73;4.10;;;14.20;99.90;;;;;;5493765;26;20018;-71
2024/04/13 06:58:00;;;;;;;7.47;3.40;;;14.30;99.90;;;;;;5489802;26;20450;-72
2024/04/13 07:00:25;;;;;;;8.90;4.15;;;14.30;99.90;;;;;;5480261;26;20002;-72
2024/04/13 07:02:51;;;;;;;11.07;3.70;;;14.30;99.90;;;;;;5483813;26;20009;-75
2024/04/13 07:05:18;;;;;;;9.73;4.05;;;14.40;99.90;;;;;;5487626;26;20026;-71
2024/04/13 07:07:43;;;;;;;12.48;4.05;;;14.50;99.90;;;;;;5492806;26;20079;-71
2024/04/13 07:10:09;;;;;;;9.25;3.70;;;14.50;99.90;;;;;;5492465;26;20005;-71
2024/04/13 07:12:35;;;;;;;10.18;4.25;;;14.50;99.90;;;;;;5494943;26;20002;-70
2024/04/13 07:15:01;;;;;;;12.23;4.20;;;14.50;99.90;;;;;;5495291;26;20009;-72
2024/04/13 07:17:27;;;;;;;12.63;4.05;;;14.60;99.90;;;;;;5494207;26;19998;-70
2024/04/13 07:19:53;;;;;;;10.77;4.20;;;14.70;99.90;;;;;;5491839;26;20001;-70
2024/04/13 07:22:20;;;;;;;9.63;3.78;;;14.80;99.90;;;;;;5498059;26;20009;-70
2024/04/13 07:24:45;;;;;;;9.70;3.63;;;14.90;99.90;;;;;;5496205;26;20018;-70
2024/04/13 07:27:11;;;;;;;10.38;3.85;;;15.00;99.90;;;;;;5496372;26;20009;-74
2024/04/13 07:29:36;;;;;;;11.98;3.65;;;14.80;99.90;;;;;;5499442;26;20005;-75
2024/04/13 07:32:02;;;;;;;8.88;3.85;;;15.00;99.90;;;;;;5499029;26;20481;-72
2024/04/13 07:34:28;;;;;;;9.57;3.83;;;15.00;99.90;;;;;;5497715;26;20009;-72
2024/04/13 07:36:53;;;;;;;12.85;3.95;;;15.00;99.90;;;;;;5499584;26;19994;-71
2024/04/13 07:39:19;;;;;;;10.63;3.42;;;15.10;99.90;;;;;;5496190;26;20098;-71
2024/04/13 07:41:44;;;;;;;10.73;4.25;;;15.20;99.90;;;;;;5496384;26;20005;-71
2024/04/13 07:44:10;;;;;;;12.63;3.80;;;15.30;99.90;;;;;;5490223;26;19994;-72
2024/04/13 07:46:37;;;;;;;9.95;3.65;;;15.30;99.90;;;;;;5496178;26;20026;-73
2024/04/13 07:49:02;;;;;;;12.90;3.70;;;15.40;99.90;;;;;;5495482;26;20009;-71
2024/04/13 07:51:28;;;;;;;12.77;3.38;;;15.50;99.90;;;;;;5498016;26;19994;-71
2024/04/13 07:53:54;;;;;;;17.10;3.85;;;15.60;99.90;;;;;;5494577;26;20009;-71
2024/04/13 07:56:20;;;;;;;8.50;3.42;;;15.50;99.90;;;;;;5488950;26;20031;-70
2024/04/13 07:58:46;;;;;;;8.55;3.92;;;15.50;99.90;;;;;;5493151;26;19991;-71
2024/04/13 08:01:12;;;;;;;7.43;3.75;;;15.40;99.90;;;;;;5494840;26;20437;-73
2024/04/13 08:03:37;;;;;;;8.75;3.70;;;15.60;99.90;;;;;;5495085;26;19998;-71
2024/04/13 08:06:03;;;;;;;13.18;3.85;;;15.60;99.90;;;;;;5497001;26;19994;-73
2024/04/13 08:08:28;;;;;;;11.68;4.15;;;15.60;99.90;;;;;;5497584;26;20344;-71
2024/04/13 08:10:54;;;;;;;7.85;4.00;;;15.70;99.90;;;;;;5497471;26;20010;-72
2024/04/13 08:13:20;;;;;;;8.35;3.50;;;15.80;99.90;;;;;;5497048;26;20002;-70
2024/04/13 08:15:46;;;;;;;10.18;3.95;;;15.90;99.90;;;;;;5498598;26;19998;-71
2024/04/13 08:18:12;;;;;;;7.40;3.58;;;16.00;99.90;;;;;;5496234;26;20010;-70
2024/04/13 08:20:38;;;;;;;10.27;3.95;;;16.10;99.90;;;;;;5493013;26;20009;-70
2024/04/13 08:23:05;;;;;;;10.80;3.72;;;16.30;99.90;;;;;;5492377;26;20028;-71
2024/04/13 08:25:32;;;;;;;14.38;3.72;;;16.40;99.90;;;;;;5489966;26;20022;-70
2024/04/13 08:27:58;;;;;;;10.95;3.63;;;16.40;99.90;;;;;;5496441;26;19994;-72
2024/04/13 08:30:23;;;;;;;11.43;4.25;;;16.50;99.90;;;;;;5495990;26;20002;-71
2024/04/13 08:32:49;;;;;;;12.63;4.53;;;16.60;99.90;;;;;;5493237;26;20010;-71
2024/04/13 08:35:15;;;;;;;9.70;3.40;;;16.70;99.90;;;;;;5493477;26;20021;-69
2024/04/13 08:37:41;;;;;;;7.95;3.15;;;16.80;99.90;;;;;;5497248;26;19998;-70
2024/04/13 08:40:10;;;;;;;9.18;3.88;;;16.90;99.90;;;;;;5495998;26;20013;-70
2024/04/13 08:42:40;;;;;;;10.07;3.92;;;17.10;99.90;;;;;;5497201;26;20055;-70
2024/04/13 08:45:09;;;;;;;10.80;3.72;;;17.00;99.90;;;;;;5491858;26;19998;-69
2024/04/13 08:47:36;;;;;;;9.57;3.65;;;17.10;99.90;;;;;;5492592;26;20013;-70
2024/04/13 08:50:02;;;;;;;10.48;3.45;;;17.20;99.90;;;;;;5497473;26;20006;-70
2024/04/13 08:52:30;;;;;;;11.45;3.58;;;17.30;99.90;;;;;;5490368;26;20002;-69
2024/04/13 08:54:57;;;;;;;9.55;4.00;;;17.60;99.90;;;;;;5491089;26;20009;-70
2024/04/13 08:57:25;;;;;;;8.65;3.42;;;17.70;99.90;;;;;;5492357;26;20069;-70
2024/04/13 08:59:51;;;;;;;12.23;3.63;;;17.90;99.90;;;;;;5490781;26;20047;-70
2024/04/13 09:02:23;;;;;;;11.20;4.15;;;18.00;99.90;;;;;;5492908;26;20010;-69
2024/04/13 09:04:52;;;;;;;11.30;3.83;;;18.10;99.90;;;;;;5488000;26;20760;-70
2024/04/13 09:07:21;;;;;;;10.38;3.90;;;18.20;99.90;;;;;;5488267;26;20009;-71
2024/04/13 09:09:53;;;;;;;7.78;3.53;;;18.10;99.90;;;;;;5492856;26;20008;-69
2024/04/13 09:12:19;;;;;;;7.25;3.25;;;18.00;99.90;;;;;;5494106;26;20082;-69
2024/04/13 09:14:45;;;;;;;13.68;3.50;;;18.00;99.90;;;;;;5494945;26;20017;-71
2024/04/13 09:17:12;;;;;;;9.50;3.95;;;18.00;99.90;;;;;;5491879;26;20012;-73
2024/04/13 09:19:38;;;;;;;10.20;3.53;;;18.20;99.90;;;;;;5490577;26;20022;-73
2024/04/13 09:22:04;;;;;;;8.32;3.38;;;18.30;99.90;;;;;;5495789;26;19998;-71
2024/04/13 09:24:43;;;;;;;8.63;3.60;;;18.60;99.90;;;;;;5489739;26;20010;-74
2024/04/13 09:27:16;;;;;;;10.02;4.28;;;18.80;99.90;;;;;;5488138;26;19998;-70
2024/04/13 09:29:42;;;;;;;9.02;4.13;;;18.90;99.90;;;;;;5492318;26;19998;-70
2024/04/13 09:32:07;;;;;;;10.05;3.95;;;18.90;99.90;;;;;;5493473;26;19994;-71
2024/04/13 09:34:35;;;;;;;11.43;3.60;;;19.00;99.90;;;;;;5489177;26;20025;-71
2024/04/13 09:37:10;;;;;;;10.85;3.85;;;19.00;99.90;;;;;;5492619;26;20062;-70
2024/04/13 09:39:36;;;;;;;9.18;3.78;;;19.00;99.90;;;;;;5488670;26;19993;-71
2024/04/13 09:42:12;;;;;;;9.15;3.42;;;19.00;99.90;;;;;;5490842;26;20003;-70
2024/04/13 09:44:39;;;;;;;8.38;3.45;;;19.00;99.90;;;;;;5489569;26;19993;-70
2024/04/13 09:47:04;;;;;;;8.45;3.83;;;19.10;99.90;;;;;;5493468;26;20013;-70
2024/04/13 09:49:30;;;;;;;8.65;3.70;;;19.20;99.90;;;;;;5490518;26;19994;-74
2024/04/13 09:51:56;;;;;;;7.78;3.85;;;19.30;99.90;;;;;;5491141;26;20009;-71
2024/04/13 09:54:26;;;;;;;10.30;4.07;;;19.30;99.90;;;;;;5491046;26;19998;-70
2024/04/13 09:56:53;;;;;;;8.48;3.80;;;19.20;99.90;;;;;;5490424;26;20002;-67
2024/04/13 09:59:22;;;;;;;8.80;3.47;;;19.30;99.90;;;;;;5492882;26;20047;-70
2024/04/13 10:01:48;;;;;;;5.45;3.30;;;19.20;99.90;;;;;;5490249;26;20358;-70
2024/04/13 10:04:14;;;;;;;8.07;3.20;;;19.20;99.90;;;;;;5495198;26;20006;-68
2024/04/13 10:06:40;;;;;;;10.55;3.30;;;19.30;99.90;;;;;;5494704;26;19994;-71
2024/04/13 10:09:11;;;;;;;9.93;3.75;;;19.40;99.90;;;;;;5494906;26;20043;-70
2024/04/13 10:11:43;;;;;;;8.95;3.33;;;19.50;99.90;;;;;;5496148;26;19998;-70
2024/04/13 10:14:10;;;;;;;6.70;3.13;;;19.50;99.90;;;;;;5493712;26;20002;-72
2024/04/13 10:16:41;;;;;;;10.98;3.35;;;19.60;99.90;;;;;;5495432;26;20082;-72
2024/04/13 10:19:10;;;;;;;6.03;3.40;;;19.60;99.90;;;;;;5492976;26;20007;-70
2024/04/13 10:21:35;;;;;;;8.93;3.60;;;19.70;99.90;;;;;;5494106;26;19994;-70
2024/04/13 10:24:01;;;;;;;8.52;2.95;;;19.70;99.90;;;;;;5491083;26;20009;-70
2024/04/13 10:26:28;;;;;;;8.60;3.40;;;19.80;99.90;;;;;;5494114;26;19994;-74
2024/04/13 10:29:01;;;;;;;8.35;3.33;;;19.80;99.90;;;;;;5491952;26;20461;-69
2024/04/13 10:31:28;;;;;;;5.55;2.80;;;19.90;99.90;;;;;;5493441;26;20047;-71
2024/04/13 10:33:55;;;;;;;5.20;2.80;;;20.00;99.90;;;;;;5494648;26;19998;-71
2024/04/13 10:36:32;;;;;;;5.35;2.95;;;20.00;99.90;;;;;;5496389;26;20010;-71
2024/04/13 10:39:01;;;;;;;6.70;3.75;;;19.90;99.90;;;;;;5495718;26;20013;-72
2024/04/13 10:41:35;;;;;;;8.00;3.38;;;19.90;99.90;;;;;;5496435;26;20006;-69
2024/04/13 10:44:05;;;;;;;7.35;3.55;;;19.90;99.90;;;;;;5497005;26;20013;-70
2024/04/13 10:46:33;;;;;;;8.88;3.08;;;20.00;99.90;;;;;;5495431;26;20008;-69
2024/04/13 10:49:00;;;;;;;7.55;3.40;;;20.00;99.90;;;;;;5489319;26;19994;-73
2024/04/13 10:51:26;;;;;;;7.45;3.20;;;20.00;99.90;;;;;;5492458;26;20056;-72
2024/04/13 10:53:51;;;;;;;8.13;3.10;;;20.10;99.90;;;;;;5490391;26;20010;-70
2024/04/13 10:56:17;;;;;;;8.80;3.05;;;20.20;99.90;;;;;;5494219;26;19999;-69
2024/04/13 10:58:43;;;;;;;6.22;2.92;;;20.30;99.90;;;;;;5492993;26;20430;-70
2024/04/13 11:01:08;;;;;;;7.63;2.60;;;20.40;99.90;;;;;;5495160;26;20025;-73
2024/04/13 11:03:35;;;;;;;7.20;2.47;;;20.60;99.90;;;;;;5495364;26;20005;-74
2024/04/13 11:06:01;;;;;;;5.38;2.65;;;20.80;99.90;;;;;;5495024;26;20068;-76
2024/04/13 11:08:28;;;;;;;4.40;2.47;;;20.90;99.90;;;;;;5495411;26;20001;-71
2024/04/13 11:10:58;;;;;;;7.15;2.65;;;21.00;99.90;;;;;;5494629;26;19994;-72
2024/04/13 11:13:23;;;;;;;5.97;2.60;;;21.00;99.90;;;;;;5475397;26;20327;-72
2024/04/13 11:15:50;;;;;;;5.47;3.03;;;21.00;99.90;;;;;;5492979;26;20608;-70
2024/04/13 11:18:17;;;;;;;4.78;3.00;;;21.10;99.90;;;;;;5478502;26;19990;-70
2024/04/13 11:20:49;;;;;;;6.53;2.63;;;21.20;99.90;;;;;;5490350;26;20006;-69
2024/04/13 11:23:15;;;;;;;8.20;2.70;;;21.30;99.90;;;;;;5489958;26;20003;-69
2024/04/13 11:25:42;;;;;;;9.18;3.00;;;21.20;99.90;;;;;;5486060;26;20017;-71
2024/04/13 11:28:10;;;;;;;5.72;2.85;;;21.30;99.90;;;;;;5491234;26;20005;-77
2024/04/13 11:30:41;;;;;;;7.60;2.53;;;21.30;99.90;;;;;;5492723;26;20017;-71
2024/04/13 11:33:08;;;;;;;5.38;2.58;;;21.20;99.90;;;;;;5494774;26;20006;-72
2024/04/13 11:35:33;;;;;;;4.95;2.72;;;21.30;99.90;;;;;;5492271;26;20002;-70
2024/04/13 11:38:00;;;;;;;5.55;2.58;;;21.30;99.90;;;;;;5493568;26;20017;-73
2024/04/13 11:40:39;;;;;;;5.00;2.92;;;21.40;99.90;;;;;;5486399;26;20006;-69
2024/04/13 11:43:05;;;;;;;6.85;2.70;;;21.40;99.90;;;;;;5492767;26;20121;-75
2024/04/13 11:45:32;;;;;;;5.32;2.70;;;21.60;99.90;;;;;;5490043;26;19994;-71
2024/04/13 11:47:58;;;;;;;7.75;3.00;;;21.70;99.90;;;;;;5493883;26;19990;-71
2024/04/13 11:50:24;;;;;;;5.20;2.47;;;21.80;99.90;;;;;;5491624;26;20005;-70
2024/04/13 11:52:50;;;;;;;5.53;2.60;;;21.80;99.90;;;;;;5495269;26;20009;-71
2024/04/13 11:55:24;;;;;;;9.15;3.03;;;21.90;99.90;;;;;;5494537;26;20006;-71
2024/04/13 11:57:50;;;;;;;7.45;2.83;;;21.80;99.90;;;;;;5496953;26;20081;-72
2024/04/13 12:00:18;;;;;;;5.97;2.70;;;21.70;99.90;;;;;;5494218;26;20003;-70
2024/04/13 12:02:44;;;;;;;5.43;2.60;;;21.60;99.90;;;;;;5496323;26;20002;-71
2024/04/13 12:05:10;;;;;;;9.25;2.92;;;21.70;99.90;;;;;;5497093;26;20009;-70
2024/04/13 12:07:36;;;;;;;5.13;2.92;;;21.80;99.90;;;;;;5493456;26;19994;-72
2024/04/13 12:10:02;;;;;;;7.45;3.40;;;22.00;99.90;;;;;;5491909;26;20006;-73
2024/04/13 12:12:27;;;;;;;6.18;3.33;;;22.00;99.90;;;;;;5495867;26;20573;-71
2024/04/13 12:14:53;;;;;;;5.43;3.15;;;21.90;99.90;;;;;;5495834;26;20084;-70
2024/04/13 12:17:19;;;;;;;6.75;2.72;;;22.10;99.90;;;;;;5497780;26;19994;-71
2024/04/13 12:19:45;;;;;;;7.93;2.92;;;22.20;99.90;;;;;;5499451;26;20087;-70
2024/04/13 12:22:11;;;;;;;5.65;3.88;;;22.30;99.90;;;;;;5493238;26;19990;-71
2024/04/13 12:24:37;;;;;;;8.75;2.55;;;22.40;99.90;;;;;;5489554;26;20446;-70
2024/04/13 12:27:04;;;;;;;7.55;2.90;;;22.40;99.90;;;;;;5495684;26;20009;-70
2024/04/13 12:29:31;;;;;;;6.32;3.30;;;22.40;99.90;;;;;;5498844;26;20027;-70
2024/04/13 12:31:56;;;;;;;9.20;4.32;;;22.50;99.90;;;;;;5496100;26;20006;-73
2024/04/13 12:34:22;;;;;;;6.82;2.78;;;22.60;99.90;;;;;;5495586;26;19994;-71
2024/04/13 12:36:48;;;;;;;7.45;2.70;;;22.70;99.90;;;;;;5499403;26;19994;-70
2024/04/13 12:39:16;;;;;;;7.95;3.30;;;23.00;99.90;;;;;;5495087;26;20010;-71
2024/04/13 12:41:43;;;;;;;4.57;2.35;;;23.20;99.90;;;;;;5495290;26;20914;-70